Time;durP1;ratioP1;P1;durP2;ratioP2;P2;SDS_P1;SDS_P2;PMS_P1;PMS_P2;Temp;Humidity;BMP_temperature;BMP_pressure;BME280_temperature;BME280_humidity;BME280_pressure;Samples;Min_cycle;Max_cycle;Signal;HPM_P1;HPM_P2
2022/07/28 00:01:42;;;;;;;17.33;16.52;;;22.70;39.70;;;;;;5014513;28;20565;-86
2022/07/28 00:04:08;;;;;;;18.63;17.75;;;22.80;39.50;;;;;;4998304;28;20205;-85
2022/07/28 00:06:34;;;;;;;19.40;18.70;;;22.60;39.70;;;;;;5018809;28;20589;-86
2022/07/28 00:08:59;;;;;;;18.33;17.70;;;22.70;40.20;;;;;;5015385;28;20188;-87
2022/07/28 00:11:25;;;;;;;17.45;16.83;;;22.90;40.30;;;;;;5011026;28;20178;-86
2022/07/28 00:13:51;;;;;;;18.73;17.90;;;22.90;39.20;;;;;;5015355;28;20189;-85
2022/07/28 00:16:17;;;;;;;17.63;16.92;;;23.00;39.70;;;;;;5012676;28;20179;-86
2022/07/28 00:18:42;;;;;;;18.75;18.08;;;22.80;38.60;;;;;;5000834;28;20216;-86
2022/07/28 00:21:08;;;;;;;18.13;17.33;;;22.70;39.40;;;;;;4997837;28;20186;-87
2022/07/28 00:23:34;;;;;;;19.45;18.65;;;22.70;39.20;;;;;;5016490;28;20181;-86
2022/07/28 00:25:59;;;;;;;20.73;19.92;;;22.30;39.90;;;;;;5006116;28;20217;-85
2022/07/28 00:28:25;;;;;;;19.92;19.17;;;22.40;40.40;;;;;;5013392;28;20229;-85
2022/07/28 00:30:54;;;;;;;19.23;18.52;;;22.40;40.00;;;;;;4987185;28;20190;-86
2022/07/28 00:33:20;;;;;;;23.80;22.52;;;22.40;40.10;;;;;;5016115;28;20182;-85
2022/07/28 00:35:45;;;;;;;24.25;23.15;;;22.20;41.20;;;;;;5013279;28;20191;-85
2022/07/28 00:38:11;;;;;;;22.73;21.90;;;22.10;40.80;;;;;;5023026;28;20211;-83
2022/07/28 00:43:21;;;;;;;22.10;21.10;;;22.20;40.60;;;;;;4990913;28;20201;-87
2022/07/28 00:45:47;;;;;;;21.75;20.95;;;22.10;40.70;;;;;;5010365;28;20194;-87
2022/07/28 00:48:12;;;;;;;23.42;22.45;;;22.00;41.20;;;;;;5003672;28;20298;-85
2022/07/28 00:50:39;;;;;;;22.50;21.60;;;22.00;40.90;;;;;;5013011;28;20268;-86
2022/07/28 00:53:06;;;;;;;22.75;21.85;;;21.80;41.80;;;;;;5013114;28;20205;-87
2022/07/28 00:55:32;;;;;;;22.33;21.48;;;21.70;41.70;;;;;;4994583;28;20185;-86
2022/07/28 00:57:59;;;;;;;20.30;19.55;;;21.70;42.20;;;;;;5014903;28;20315;-86
2022/07/28 01:00:25;;;;;;;21.00;20.13;;;21.60;42.30;;;;;;5009665;28;20191;-86
2022/07/28 01:02:51;;;;;;;20.38;19.67;;;21.60;42.60;;;;;;4995508;28;20187;-86
2022/07/28 01:05:17;;;;;;;19.77;19.05;;;21.50;43.10;;;;;;4991684;28;20260;-87
2022/07/28 01:08:25;;;;;;;18.40;17.70;;;21.50;43.30;;;;;;5006367;28;20239;-86
2022/07/28 01:11:00;;;;;;;17.67;17.08;;;21.40;43.60;;;;;;5015091;28;20219;-86
2022/07/28 01:13:35;;;;;;;17.45;16.80;;;21.30;43.90;;;;;;4990863;28;20181;-86
2022/07/28 01:16:04;;;;;;;17.58;16.65;;;21.40;43.70;;;;;;5002745;28;20266;-86
2022/07/28 01:18:48;;;;;;;16.98;16.30;;;21.30;43.60;;;;;;5006042;28;20202;-85
2022/07/28 01:21:20;;;;;;;16.58;15.88;;;21.30;44.20;;;;;;5004923;28;20254;-86
2022/07/28 01:24:00;;;;;;;16.40;15.65;;;21.30;44.30;;;;;;5004007;28;20191;-85
2022/07/28 01:26:42;;;;;;;14.45;13.85;;;21.20;44.30;;;;;;4984347;28;20240;-87
2022/07/28 01:29:39;;;;;;;13.38;12.77;;;21.00;45.20;;;;;;5003295;28;20292;-87
2022/07/28 01:32:11;;;;;;;13.88;13.18;;;20.90;45.60;;;;;;5007269;28;20185;-87
2022/07/28 01:34:49;;;;;;;13.52;12.93;;;20.90;45.50;;;;;;5007436;28;20182;-86
2022/07/28 01:37:20;;;;;;;14.13;12.88;;;20.90;45.60;;;;;;5007224;28;20218;-85
2022/07/28 01:39:51;;;;;;;13.65;13.15;;;21.00;45.40;;;;;;5006157;28;20272;-85
2022/07/28 01:42:20;;;;;;;13.90;13.30;;;21.00;45.60;;;;;;4993689;28;20730;-86
2022/07/28 01:44:49;;;;;;;13.85;13.18;;;20.90;46.00;;;;;;5001275;28;20183;-86
2022/07/28 01:47:17;;;;;;;14.13;13.52;;;20.90;46.60;;;;;;5003995;28;20216;-86
2022/07/28 01:49:45;;;;;;;14.55;13.75;;;21.00;46.30;;;;;;5008056;28;20188;-86
2022/07/28 01:52:12;;;;;;;14.65;14.05;;;21.30;46.20;;;;;;5005351;28;20223;-88
2022/07/28 01:54:40;;;;;;;14.38;13.88;;;21.20;46.40;;;;;;4993611;28;20205;-87
2022/07/28 01:57:09;;;;;;;15.48;14.77;;;21.10;47.10;;;;;;4990225;28;20575;-86
2022/07/28 01:59:37;;;;;;;14.90;14.40;;;21.20;46.80;;;;;;4991561;28;20274;-86
2022/07/28 02:02:04;;;;;;;15.65;15.00;;;21.10;47.00;;;;;;4988439;28;20264;-86
2022/07/28 02:04:32;;;;;;;15.50;14.90;;;21.00;47.20;;;;;;4975074;28;20194;-87
2022/07/28 02:06:59;;;;;;;15.88;15.07;;;20.90;48.00;;;;;;5007866;28;20282;-86
2022/07/28 02:09:26;;;;;;;15.80;15.07;;;20.80;48.30;;;;;;5006584;28;20787;-87
2022/07/28 02:11:54;;;;;;;15.35;14.60;;;20.70;49.40;;;;;;4989157;28;20294;-85
2022/07/28 02:14:22;;;;;;;15.57;14.88;;;20.60;48.90;;;;;;4991437;28;20182;-87
2022/07/28 02:16:53;;;;;;;16.20;15.18;;;20.60;49.00;;;;;;5006670;28;20209;-85
2022/07/28 02:19:20;;;;;;;15.85;15.15;;;20.60;49.10;;;;;;5009939;28;20190;-86
2022/07/28 02:21:48;;;;;;;16.77;16.08;;;20.50;50.10;;;;;;5010268;28;20186;-85
2022/07/28 02:24:21;;;;;;;16.05;15.45;;;20.50;49.70;;;;;;5008404;28;20187;-87
2022/07/28 02:26:52;;;;;;;15.77;15.10;;;20.60;49.00;;;;;;5013042;28;20225;-86
2022/07/28 02:29:23;;;;;;;16.40;15.70;;;20.50;49.40;;;;;;5007690;28;20193;-85
2022/07/28 02:31:53;;;;;;;16.65;15.95;;;20.60;49.50;;;;;;5006925;28;20200;-85
2022/07/28 02:34:22;;;;;;;15.70;14.90;;;20.60;49.40;;;;;;5005625;28;20194;-85
2022/07/28 02:37:00;;;;;;;16.00;15.27;;;20.60;49.40;;;;;;5008799;28;20637;-86
2022/07/28 02:39:34;;;;;;;16.70;16.00;;;20.40;50.10;;;;;;4991337;28;20181;-86
2022/07/28 02:42:13;;;;;;;16.20;15.50;;;20.20;50.60;;;;;;5009801;28;20192;-86
2022/07/28 02:44:58;;;;;;;16.73;16.02;;;20.10;51.30;;;;;;5009041;28;20675;-85
2022/07/28 02:47:27;;;;;;;16.30;15.68;;;20.20;50.70;;;;;;5005623;28;20220;-86
2022/07/28 02:49:56;;;;;;;16.20;15.60;;;20.30;50.90;;;;;;4987906;28;20213;-85
2022/07/28 02:52:24;;;;;;;16.13;15.48;;;19.90;51.90;;;;;;5007731;28;20204;-86
2022/07/28 02:54:55;;;;;;;16.30;15.48;;;19.80;52.20;;;;;;4994901;28;20189;-86
2022/07/28 02:57:22;;;;;;;17.25;16.30;;;19.80;52.50;;;;;;5006088;28;20715;-86
2022/07/28 02:59:49;;;;;;;17.52;16.73;;;20.00;51.80;;;;;;4987391;28;20220;-85
2022/07/28 03:02:20;;;;;;;17.10;16.15;;;20.00;52.10;;;;;;4990247;28;20673;-86
2022/07/28 03:04:57;;;;;;;16.95;16.23;;;20.10;51.40;;;;;;5005889;28;20534;-86
2022/07/28 03:07:26;;;;;;;17.90;17.17;;;20.10;51.60;;;;;;4987803;28;20217;-86
2022/07/28 03:09:52;;;;;;;16.17;15.48;;;20.00;52.00;;;;;;5012509;28;20538;-85
2022/07/28 03:12:17;;;;;;;16.48;15.88;;;20.00;52.20;;;;;;5006227;28;20178;-86
2022/07/28 03:14:43;;;;;;;17.08;16.15;;;20.10;52.10;;;;;;5006018;28;20182;-87
2022/07/28 03:17:09;;;;;;;16.80;16.15;;;20.10;52.00;;;;;;5006334;28;20214;-85
2022/07/28 03:19:35;;;;;;;18.75;17.95;;;20.20;52.00;;;;;;5006242;28;20677;-87
2022/07/28 03:22:01;;;;;;;17.55;16.90;;;20.40;51.60;;;;;;5003603;28;20190;-85
2022/07/28 03:24:34;;;;;;;18.08;17.27;;;20.40;50.80;;;;;;4993248;28;20672;-87
2022/07/28 03:27:14;;;;;;;17.23;16.42;;;20.30;51.30;;;;;;5006670;28;20551;-88
2022/07/28 03:29:42;;;;;;;18.15;17.25;;;20.40;51.40;;;;;;5028643;28;20213;-85
2022/07/28 03:32:08;;;;;;;17.15;16.38;;;20.40;50.90;;;;;;5025558;28;20184;-86
2022/07/28 03:34:34;;;;;;;18.30;17.40;;;20.40;51.10;;;;;;5009184;28;20672;-86
2022/07/28 03:37:06;;;;;;;18.52;17.83;;;20.50;51.20;;;;;;5007742;28;20211;-87
2022/07/28 03:39:36;;;;;;;20.20;19.25;;;20.70;51.10;;;;;;5001587;28;20558;-87
2022/07/28 03:42:03;;;;;;;19.27;18.40;;;20.70;50.00;;;;;;5003753;28;20409;-86
2022/07/28 03:44:29;;;;;;;18.67;17.88;;;20.60;50.30;;;;;;5005511;28;20178;-86
2022/07/28 03:46:55;;;;;;;18.02;17.40;;;20.40;50.80;;;;;;4982318;28;20218;-85
2022/07/28 03:49:21;;;;;;;17.25;16.55;;;20.20;51.20;;;;;;5005860;28;20725;-85
2022/07/28 03:51:47;;;;;;;15.75;15.13;;;20.10;51.60;;;;;;5002421;28;20233;-85
2022/07/28 03:54:12;;;;;;;15.63;15.02;;;19.90;52.00;;;;;;5006196;28;20210;-86
2022/07/28 03:56:38;;;;;;;15.60;14.88;;;19.80;53.10;;;;;;5005047;28;20193;-86
2022/07/28 03:59:04;;;;;;;15.75;15.02;;;19.60;53.20;;;;;;5005708;28;20205;-86
2022/07/28 04:01:29;;;;;;;15.75;15.15;;;19.40;53.90;;;;;;5004523;28;20186;-85
2022/07/28 04:03:55;;;;;;;17.08;16.23;;;19.40;54.00;;;;;;5003914;28;20231;-85
2022/07/28 04:06:21;;;;;;;16.55;15.75;;;19.60;53.20;;;;;;5003150;28;20209;-85
2022/07/28 04:08:46;;;;;;;17.85;17.02;;;19.60;52.90;;;;;;4992386;28;20802;-85
2022/07/28 04:11:12;;;;;;;16.25;15.65;;;19.50;53.50;;;;;;5003914;28;20210;-88
2022/07/28 04:13:38;;;;;;;16.05;15.35;;;19.60;52.60;;;;;;5003849;28;20222;-85
2022/07/28 04:16:05;;;;;;;16.25;15.38;;;19.60;52.90;;;;;;5005480;28;20193;-86
2022/07/28 04:18:31;;;;;;;16.67;15.95;;;19.50;52.90;;;;;;5008478;28;20212;-88
2022/07/28 04:20:56;;;;;;;15.77;15.10;;;19.70;52.60;;;;;;4985609;28;20194;-86
2022/07/28 04:23:22;;;;;;;15.77;15.18;;;19.70;51.70;;;;;;5005083;28;20193;-86
2022/07/28 04:25:48;;;;;;;15.40;14.68;;;19.80;52.10;;;;;;5004779;28;20203;-87
2022/07/28 04:28:14;;;;;;;14.82;13.80;;;19.70;51.70;;;;;;5005896;28;20217;-87
2022/07/28 04:30:40;;;;;;;15.38;14.57;;;19.80;51.00;;;;;;4990421;28;20821;-87
2022/07/28 04:33:05;;;;;;;15.10;14.50;;;19.60;51.70;;;;;;5017585;28;20247;-86
2022/07/28 04:35:33;;;;;;;15.05;14.27;;;19.40;52.20;;;;;;5002521;28;20236;-87
2022/07/28 04:37:59;;;;;;;15.32;14.63;;;19.30;52.60;;;;;;4996183;28;20206;-88
2022/07/28 04:40:26;;;;;;;16.48;15.52;;;19.30;53.00;;;;;;5015438;28;20181;-87
2022/07/28 04:42:53;;;;;;;14.75;14.15;;;19.20;53.20;;;;;;5004457;28;20178;-88
2022/07/28 04:45:19;;;;;;;15.98;15.27;;;19.00;54.20;;;;;;5004536;28;20277;-88
2022/07/28 04:47:44;;;;;;;15.90;15.27;;;18.90;54.70;;;;;;5011930;28;20239;-88
2022/07/28 04:50:14;;;;;;;16.27;15.68;;;18.90;54.30;;;;;;5016000;28;20185;-87
2022/07/28 04:52:41;;;;;;;18.27;17.47;;;18.70;54.50;;;;;;4998890;28;20198;-87
2022/07/28 04:55:07;;;;;;;20.13;19.13;;;18.80;54.40;;;;;;5016677;28;20597;-88
2022/07/28 04:57:33;;;;;;;18.90;18.10;;;18.70;54.70;;;;;;5033517;28;20301;-87
2022/07/28 04:59:59;;;;;;;20.60;19.60;;;18.80;54.40;;;;;;5016107;28;20182;-88
2022/07/28 05:02:25;;;;;;;19.23;18.33;;;18.70;54.60;;;;;;5015985;28;20265;-87
2022/07/28 05:04:51;;;;;;;19.73;18.83;;;18.80;54.40;;;;;;5017303;28;20174;-87
2022/07/28 05:07:17;;;;;;;19.77;18.60;;;18.80;54.60;;;;;;5013995;28;20221;-87
2022/07/28 05:09:43;;;;;;;19.87;19.07;;;18.80;54.60;;;;;;5002768;28;20213;-87
2022/07/28 05:12:12;;;;;;;20.07;18.63;;;18.80;54.60;;;;;;5020459;28;20187;-88
2022/07/28 05:14:38;;;;;;;17.17;16.47;;;18.80;54.50;;;;;;5014441;28;20215;-89
2022/07/28 05:17:03;;;;;;;17.88;16.98;;;19.00;53.80;;;;;;5000984;28;20213;-88
2022/07/28 05:19:29;;;;;;;17.47;16.33;;;18.90;54.30;;;;;;5036425;28;20197;-87
2022/07/28 05:21:55;;;;;;;16.35;15.75;;;18.90;54.30;;;;;;5042442;28;20182;-87
2022/07/28 05:24:20;;;;;;;16.38;15.68;;;18.90;55.00;;;;;;5041390;28;20197;-87
2022/07/28 05:26:46;;;;;;;17.15;16.25;;;19.00;53.60;;;;;;5023334;28;20227;-88
2022/07/28 05:29:11;;;;;;;17.27;16.48;;;19.10;54.40;;;;;;5028617;28;20221;-88
2022/07/28 05:31:37;;;;;;;17.08;16.17;;;19.00;53.60;;;;;;5014606;28;20189;-88
2022/07/28 05:34:04;;;;;;;16.33;15.63;;;19.10;53.20;;;;;;5004368;28;20184;-88
2022/07/28 05:36:30;;;;;;;16.45;15.55;;;19.10;53.10;;;;;;5023077;28;20176;-89
2022/07/28 05:38:56;;;;;;;18.23;17.10;;;19.10;53.20;;;;;;5016996;28;20198;-87
2022/07/28 05:41:22;;;;;;;19.93;19.03;;;19.00;53.50;;;;;;5017006;28;20260;-87
2022/07/28 05:43:48;;;;;;;20.33;19.63;;;18.90;54.20;;;;;;5022751;28;20187;-86
2022/07/28 05:46:14;;;;;;;21.17;20.40;;;18.90;54.20;;;;;;4995362;28;20264;-87
2022/07/28 05:48:39;;;;;;;21.50;20.63;;;18.90;54.10;;;;;;4980854;28;20228;-87
2022/07/28 05:51:05;;;;;;;17.87;17.07;;;18.90;53.80;;;;;;5017023;28;20577;-88
2022/07/28 05:53:31;;;;;;;20.05;19.35;;;19.10;52.90;;;;;;5028285;28;20204;-87
2022/07/28 05:55:57;;;;;;;22.00;21.00;;;19.10;53.30;;;;;;5003607;28;20686;-87
2022/07/28 05:58:22;;;;;;;19.57;18.77;;;19.10;53.60;;;;;;5012127;28;20216;-87
2022/07/28 06:00:49;;;;;;;20.67;19.63;;;19.20;52.90;;;;;;5020673;28;20194;-87
2022/07/28 06:03:15;;;;;;;20.50;19.60;;;19.20;53.30;;;;;;5023158;28;20685;-88
2022/07/28 06:05:40;;;;;;;17.77;17.07;;;19.30;53.60;;;;;;5022133;28;20177;-88
2022/07/28 06:08:06;;;;;;;17.73;16.97;;;19.50;52.30;;;;;;5009767;28;20222;-88
2022/07/28 06:13:16;;;;;;;17.13;16.40;;;19.60;52.20;;;;;;5022548;28;20191;-87
2022/07/28 06:15:44;;;;;;;16.92;16.33;;;19.50;52.40;;;;;;5015010;28;20242;-88
2022/07/28 06:18:10;;;;;;;16.73;16.02;;;19.50;52.30;;;;;;5014462;28;20284;-89
2022/07/28 06:20:37;;;;;;;16.75;16.15;;;19.70;52.30;;;;;;5036925;28;20181;-87
2022/07/28 06:23:04;;;;;;;16.13;15.50;;;19.80;51.80;;;;;;5050331;28;20204;-87
2022/07/28 06:25:30;;;;;;;16.55;15.80;;;19.90;51.80;;;;;;5021127;28;20184;-88
2022/07/28 06:27:59;;;;;;;15.70;15.07;;;19.90;51.70;;;;;;5017578;28;20658;-88
2022/07/28 06:30:25;;;;;;;16.13;15.38;;;19.90;51.70;;;;;;5023050;28;20181;-89
2022/07/28 06:32:52;;;;;;;17.25;16.55;;;19.80;51.80;;;;;;5007340;28;20183;-88
2022/07/28 06:35:18;;;;;;;18.70;17.88;;;20.10;51.40;;;;;;5021093;28;20198;-88
2022/07/28 06:37:46;;;;;;;18.80;17.88;;;20.30;50.70;;;;;;5016203;28;20216;-88
2022/07/28 06:40:12;;;;;;;18.10;17.35;;;20.40;50.70;;;;;;5016549;28;20190;-89
2022/07/28 06:42:39;;;;;;;16.65;15.95;;;20.30;50.80;;;;;;5006056;28;20216;-89
2022/07/28 06:45:06;;;;;;;16.52;15.93;;;20.40;50.70;;;;;;4997497;28;20197;-89
2022/07/28 06:47:32;;;;;;;17.52;16.50;;;20.30;51.10;;;;;;5018578;28;20810;-86
2022/07/28 06:49:57;;;;;;;18.27;17.15;;;20.20;51.60;;;;;;5016550;28;20205;-88
2022/07/28 06:52:24;;;;;;;18.35;17.45;;;20.60;50.40;;;;;;5012072;28;20234;-90
2022/07/28 06:54:51;;;;;;;17.70;17.00;;;20.70;50.10;;;;;;5006938;28;20185;-88
2022/07/28 06:57:19;;;;;;;17.40;16.80;;;20.70;50.00;;;;;;5024923;28;20292;-89
2022/07/28 06:59:45;;;;;;;18.38;17.42;;;20.80;49.80;;;;;;5020490;28;20193;-87
2022/07/28 07:02:12;;;;;;;18.58;17.77;;;21.00;49.20;;;;;;5013506;28;20209;-89
2022/07/28 07:04:37;;;;;;;17.80;16.83;;;21.10;49.20;;;;;;5000079;28;20195;-86
2022/07/28 07:07:03;;;;;;;18.23;17.33;;;21.20;48.80;;;;;;4993755;28;20784;-89
2022/07/28 07:09:29;;;;;;;17.50;16.55;;;21.10;49.00;;;;;;4996424;28;20301;-86
2022/07/28 07:11:55;;;;;;;17.42;16.73;;;20.90;49.80;;;;;;5017549;28;20198;-88
2022/07/28 07:14:21;;;;;;;17.58;16.67;;;20.80;50.40;;;;;;5014791;28;20649;-86
2022/07/28 07:16:46;;;;;;;17.73;16.90;;;20.80;50.40;;;;;;5014516;28;21273;-87
2022/07/28 07:19:12;;;;;;;18.02;17.23;;;20.60;50.90;;;;;;4999876;28;20193;-85
2022/07/28 07:21:38;;;;;;;18.30;17.40;;;20.80;50.90;;;;;;5019541;28;20208;-89
2022/07/28 07:24:03;;;;;;;19.35;18.55;;;21.00;50.70;;;;;;4989057;28;20197;-88
2022/07/28 07:26:29;;;;;;;19.92;18.90;;;21.10;50.20;;;;;;5016996;28;20189;-88
2022/07/28 07:28:55;;;;;;;20.25;19.25;;;21.10;50.40;;;;;;5007205;28;20647;-88
2022/07/28 07:31:20;;;;;;;19.73;18.80;;;21.30;50.00;;;;;;4977338;28;20190;-90
2022/07/28 07:33:46;;;;;;;19.77;18.98;;;21.40;50.00;;;;;;4997242;28;20197;-88
2022/07/28 07:36:12;;;;;;;19.90;19.20;;;21.50;49.50;;;;;;5013568;28;20201;-88
2022/07/28 07:38:38;;;;;;;19.20;18.40;;;21.60;49.70;;;;;;4982642;28;20236;-88
2022/07/28 07:41:04;;;;;;;18.70;17.90;;;21.60;49.50;;;;;;4991991;28;20189;-87
2022/07/28 07:43:30;;;;;;;19.17;18.38;;;21.60;50.70;;;;;;5005342;28;20263;-88
2022/07/28 07:45:56;;;;;;;19.75;19.00;;;21.50;49.70;;;;;;5012278;28;20206;-87
2022/07/28 07:48:21;;;;;;;19.95;19.15;;;21.70;49.50;;;;;;4991144;28;20218;-87
2022/07/28 07:50:47;;;;;;;20.77;19.92;;;21.70;49.70;;;;;;5015291;28;20674;-88
2022/07/28 07:53:13;;;;;;;22.90;21.90;;;21.90;49.50;;;;;;4994484;28;20269;-87
2022/07/28 07:55:39;;;;;;;22.80;21.60;;;22.10;48.70;;;;;;5012005;28;20262;-88
2022/07/28 07:58:05;;;;;;;22.92;22.00;;;22.20;49.10;;;;;;5013864;28;20211;-88
2022/07/28 08:00:31;;;;;;;23.75;22.65;;;22.30;48.20;;;;;;5015282;28;20194;-89
2022/07/28 08:02:57;;;;;;;24.05;23.05;;;22.40;47.80;;;;;;5015553;28;20251;-87
2022/07/28 08:05:23;;;;;;;23.05;22.02;;;22.40;48.50;;;;;;5012606;28;20536;-90
2022/07/28 08:07:49;;;;;;;23.15;22.25;;;22.50;48.10;;;;;;4997948;28;20232;-89
2022/07/28 08:10:15;;;;;;;23.20;22.20;;;22.40;48.10;;;;;;5000535;28;20187;-87
2022/07/28 08:12:41;;;;;;;24.10;22.90;;;22.60;47.60;;;;;;4997581;28;20214;-89
2022/07/28 08:15:07;;;;;;;23.00;21.90;;;22.90;47.40;;;;;;5015691;28;20188;-91
2022/07/28 08:17:33;;;;;;;22.30;21.40;;;23.10;47.00;;;;;;4996456;28;20225;-88
2022/07/28 08:19:59;;;;;;;22.23;21.25;;;23.20;46.90;;;;;;5017866;28;20194;-89
2022/07/28 08:22:25;;;;;;;24.02;23.00;;;23.20;47.00;;;;;;5013512;28;20212;-89
2022/07/28 08:24:51;;;;;;;22.35;21.33;;;23.30;47.00;;;;;;5016408;28;20191;-89
2022/07/28 08:27:17;;;;;;;23.35;22.35;;;23.10;47.10;;;;;;5012904;28;20295;-89
2022/07/28 08:29:42;;;;;;;24.92;23.92;;;23.10;47.40;;;;;;4998999;28;20188;-88
2022/07/28 08:32:08;;;;;;;24.52;23.33;;;23.20;47.40;;;;;;5024081;28;20281;-89
2022/07/28 08:34:34;;;;;;;25.08;23.75;;;23.40;47.00;;;;;;5016945;28;20269;-88
2022/07/28 08:37:03;;;;;;;25.95;24.80;;;23.50;46.40;;;;;;5020231;28;20673;-89
2022/07/28 08:39:30;;;;;;;25.73;24.63;;;23.70;46.60;;;;;;5020823;28;20213;-89
2022/07/28 08:42:14;;;;;;;25.83;24.73;;;23.70;46.50;;;;;;5019073;28;20186;-89
2022/07/28 08:44:48;;;;;;;25.77;24.77;;;23.70;47.10;;;;;;5016308;28;20285;-88
2022/07/28 08:47:15;;;;;;;26.38;24.98;;;23.80;46.90;;;;;;5020356;28;20247;-88
2022/07/28 08:49:42;;;;;;;25.92;24.92;;;23.90;46.70;;;;;;5024815;28;20186;-87
2022/07/28 08:52:12;;;;;;;30.33;29.20;;;24.00;46.30;;;;;;4996078;28;20206;-88
2022/07/28 08:54:44;;;;;;;33.20;31.90;;;24.30;46.40;;;;;;5022791;28;20181;-88
2022/07/28 08:57:16;;;;;;;33.53;32.30;;;24.40;46.40;;;;;;5021552;28;20471;-89
2022/07/28 08:59:42;;;;;;;35.85;34.42;;;24.60;45.20;;;;;;5027164;28;20194;-89
2022/07/28 09:02:12;;;;;;;36.08;34.67;;;24.90;44.90;;;;;;5024637;28;20258;-89
2022/07/28 09:04:38;;;;;;;37.65;36.25;;;25.00;44.40;;;;;;5014544;28;20813;-88
2022/07/28 09:07:05;;;;;;;33.35;32.03;;;24.70;45.00;;;;;;4974624;28;20411;-88
2022/07/28 09:09:32;;;;;;;35.60;34.20;;;24.70;45.50;;;;;;5015387;28;20185;-88
2022/07/28 09:12:01;;;;;;;35.20;33.83;;;24.70;45.30;;;;;;5014291;28;20176;-89
2022/07/28 09:14:26;;;;;;;35.80;34.40;;;24.60;45.20;;;;;;5025288;28;20181;-88
2022/07/28 09:16:52;;;;;;;35.42;34.03;;;24.60;45.10;;;;;;4999141;28;20792;-88
2022/07/28 09:19:18;;;;;;;35.75;34.25;;;24.90;45.00;;;;;;5012065;28;20589;-89
2022/07/28 09:21:44;;;;;;;37.17;35.88;;;25.10;44.90;;;;;;5001441;28;20223;-89
2022/07/28 09:24:30;;;;;;;39.10;37.45;;;25.50;44.30;;;;;;5024770;28;20189;-89
2022/07/28 09:27:02;;;;;;;40.03;38.53;;;25.70;43.10;;;;;;5020582;28;20725;-89
2022/07/28 09:29:28;;;;;;;42.30;40.45;;;25.70;42.70;;;;;;5001281;28;20257;-89
2022/07/28 09:31:54;;;;;;;41.92;40.33;;;25.90;42.20;;;;;;5005911;28;20264;-90
2022/07/28 09:34:20;;;;;;;40.25;38.55;;;25.90;41.70;;;;;;5021154;28;20209;-89
2022/07/28 09:36:46;;;;;;;41.72;40.03;;;26.00;41.80;;;;;;5019950;28;20228;-89
2022/07/28 09:39:31;;;;;;;42.83;41.35;;;26.10;42.10;;;;;;5023500;28;20190;-88
2022/07/28 09:41:57;;;;;;;39.40;37.58;;;26.40;42.10;;;;;;5018273;28;20174;-89
2022/07/28 09:44:25;;;;;;;34.50;33.20;;;26.40;41.10;;;;;;4996043;28;20182;-89
2022/07/28 09:46:51;;;;;;;34.60;33.10;;;26.70;40.40;;;;;;5019041;28;20218;-90
2022/07/28 09:49:17;;;;;;;35.58;34.08;;;26.60;41.10;;;;;;5012514;28;21418;-88
2022/07/28 09:52:02;;;;;;;46.75;44.85;;;26.80;41.10;;;;;;5020511;28;20261;-89
2022/07/28 09:54:28;;;;;;;40.88;39.28;;;26.60;42.20;;;;;;5026304;28;20587;-87
2022/07/28 09:56:54;;;;;;;39.63;38.20;;;26.80;41.30;;;;;;5031331;28;20204;-89
2022/07/28 09:59:20;;;;;;;35.95;34.58;;;27.00;41.00;;;;;;5027467;28;20741;-89
2022/07/28 10:01:59;;;;;;;33.80;32.50;;;27.40;40.00;;;;;;5028298;28;20192;-90
2022/07/28 10:04:40;;;;;;;38.17;36.10;;;27.80;39.20;;;;;;5027772;28;20689;-89
2022/07/28 10:07:09;;;;;;;40.60;38.83;;;27.90;39.20;;;;;;5023186;28;20427;-90
2022/07/28 10:09:35;;;;;;;37.10;35.70;;;27.90;38.60;;;;;;5005235;28;20182;-89
2022/07/28 10:12:21;;;;;;;40.35;38.90;;;27.80;39.10;;;;;;5022557;28;20239;-89
2022/07/28 10:14:50;;;;;;;32.25;30.98;;;27.80;38.80;;;;;;5036385;28;20241;-89
2022/07/28 10:17:36;;;;;;;37.60;36.20;;;27.70;39.30;;;;;;5026004;28;20202;-89
2022/07/28 10:20:05;;;;;;;43.45;41.78;;;28.20;38.60;;;;;;5004845;28;20201;-88
2022/07/28 10:22:36;;;;;;;37.28;35.70;;;28.10;38.50;;;;;;5005392;28;20184;-89
2022/07/28 10:25:11;;;;;;;36.92;35.40;;;27.90;38.60;;;;;;5014525;28;20189;-88
2022/07/28 10:27:39;;;;;;;38.72;37.13;;;27.90;39.00;;;;;;5021745;28;20213;-89
2022/07/28 10:30:06;;;;;;;44.03;42.42;;;28.20;39.50;;;;;;5013086;28;20204;-89
2022/07/28 10:32:37;;;;;;;45.72;44.08;;;28.70;37.60;;;;;;5004399;28;20183;-89
2022/07/28 10:35:06;;;;;;;43.78;41.92;;;28.80;37.60;;;;;;5026001;28;20178;-89
2022/07/28 10:37:41;;;;;;;41.70;40.20;;;28.70;38.20;;;;;;5028818;28;20728;-88
2022/07/28 10:40:09;;;;;;;45.08;43.35;;;28.70;38.00;;;;;;5014233;28;20265;-88
2022/07/28 10:42:37;;;;;;;45.33;43.55;;;28.70;37.70;;;;;;5018711;28;20189;-89
2022/07/28 10:45:03;;;;;;;46.78;45.10;;;29.00;36.70;;;;;;5024261;28;20193;-88
2022/07/28 10:47:29;;;;;;;47.67;45.42;;;29.10;37.10;;;;;;5029965;28;20247;-88
2022/07/28 10:49:55;;;;;;;45.90;44.20;;;28.90;37.20;;;;;;5020809;28;20181;-89
2022/07/28 10:52:22;;;;;;;37.58;36.08;;;28.70;38.10;;;;;;5001227;28;20720;-90
2022/07/28 10:54:59;;;;;;;30.10;28.75;;;28.40;38.60;;;;;;5019340;28;20574;-89
2022/07/28 10:57:25;;;;;;;30.25;29.05;;;28.00;39.80;;;;;;5023531;28;20263;-88
2022/07/28 11:00:04;;;;;;;31.15;29.75;;;27.80;40.00;;;;;;5020871;28;20189;-89
2022/07/28 11:02:51;;;;;;;33.75;32.20;;;28.10;39.40;;;;;;5021809;28;20185;-89
2022/07/28 11:05:26;;;;;;;40.17;38.78;;;28.60;39.20;;;;;;5027077;28;20197;-89
2022/07/28 11:07:53;;;;;;;46.67;44.53;;;28.70;38.70;;;;;;5023107;28;20209;-89
2022/07/28 11:10:19;;;;;;;44.10;42.40;;;29.10;38.30;;;;;;5028945;28;20211;-90
2022/07/28 11:12:47;;;;;;;46.10;44.20;;;29.10;38.10;;;;;;5019749;28;20652;-89
2022/07/28 11:15:43;;;;;;;49.38;47.47;;;29.40;37.50;;;;;;4996486;28;20196;-89
2022/07/28 11:18:09;;;;;;;46.88;45.08;;;30.00;36.80;;;;;;4996545;28;20972;-90
2022/07/28 11:20:59;;;;;;;41.13;39.42;;;29.80;36.50;;;;;;5021585;28;20241;-90
2022/07/28 11:23:42;;;;;;;40.88;39.03;;;30.10;35.70;;;;;;5025123;28;20176;-90
2022/07/28 11:26:22;;;;;;;26.13;25.02;;;30.40;35.60;;;;;;5027000;28;20209;-89
2022/07/28 11:29:03;;;;;;;24.05;22.98;;;30.80;34.30;;;;;;5021586;28;20267;-89
2022/07/28 11:31:46;;;;;;;23.25;22.02;;;31.10;34.60;;;;;;5006011;28;20177;-91
2022/07/28 11:34:18;;;;;;;22.85;21.95;;;31.20;34.10;;;;;;5016474;28;20185;-88
2022/07/28 11:37:04;;;;;;;23.55;22.45;;;31.50;33.80;;;;;;5020968;28;20273;-90
2022/07/28 11:39:41;;;;;;;23.58;22.17;;;31.50;33.70;;;;;;5000479;28;20243;-90
2022/07/28 11:42:31;;;;;;;23.05;22.08;;;31.10;33.80;;;;;;5016632;28;20190;-89
2022/07/28 11:45:16;;;;;;;23.52;22.38;;;31.30;33.80;;;;;;5022694;28;20184;-90
2022/07/28 11:47:42;;;;;;;21.88;20.98;;;31.80;33.40;;;;;;4999322;28;20701;-89
2022/07/28 11:50:16;;;;;;;20.63;19.73;;;31.90;32.30;;;;;;5005451;28;20249;-88
2022/07/28 11:52:55;;;;;;;24.77;23.50;;;31.70;32.50;;;;;;5026521;28;20239;-90
2022/07/28 11:55:21;;;;;;;23.80;22.80;;;30.90;34.00;;;;;;5022049;28;20205;-89
2022/07/28 11:57:47;;;;;;;24.48;23.30;;;30.90;33.80;;;;;;5018977;28;20757;-89
2022/07/28 12:00:21;;;;;;;24.65;23.58;;;31.10;34.00;;;;;;5033828;28;20190;-91
2022/07/28 12:02:47;;;;;;;24.98;23.30;;;31.30;34.00;;;;;;5026027;28;20201;-90
2022/07/28 12:05:14;;;;;;;25.10;23.67;;;31.30;34.40;;;;;;5023914;28;20181;-89
2022/07/28 12:07:43;;;;;;;24.45;23.17;;;31.60;33.30;;;;;;5003820;28;20220;-89
2022/07/28 12:10:33;;;;;;;23.15;22.25;;;31.90;32.80;;;;;;5016056;28;20201;-89
2022/07/28 12:13:02;;;;;;;24.17;23.02;;;31.90;32.90;;;;;;4997865;28;20193;-89
2022/07/28 12:15:28;;;;;;;24.45;23.35;;;31.80;33.20;;;;;;5019299;28;20177;-90
2022/07/28 12:17:55;;;;;;;25.02;23.92;;;31.30;34.30;;;;;;5012310;28;20938;-89
2022/07/28 12:20:21;;;;;;;23.80;22.80;;;31.00;34.50;;;;;;5011749;28;20182;-89
2022/07/28 12:23:13;;;;;;;24.25;23.08;;;31.00;35.30;;;;;;5014969;28;20211;-90
2022/07/28 12:25:42;;;;;;;24.20;23.00;;;31.30;34.40;;;;;;5023022;28;20224;-90
2022/07/28 12:28:21;;;;;;;22.92;21.83;;;31.60;33.80;;;;;;5002691;28;20794;-89
2022/07/28 12:30:48;;;;;;;23.45;22.35;;;32.00;33.50;;;;;;5011946;28;20217;-89
2022/07/28 12:33:26;;;;;;;23.40;22.50;;;32.00;33.50;;;;;;5019280;28;20182;-88
2022/07/28 12:35:56;;;;;;;26.00;24.70;;;31.50;33.40;;;;;;5007071;28;21166;-88
2022/07/28 12:38:24;;;;;;;25.65;24.55;;;31.50;33.80;;;;;;5022645;28;20331;-88
2022/07/28 12:40:50;;;;;;;24.75;23.65;;;31.70;33.60;;;;;;5020112;28;20205;-89
2022/07/28 12:43:26;;;;;;;23.42;22.35;;;32.00;33.40;;;;;;5016389;28;20186;-89